sensor_id;sensor_type;location;lat;lon;timestamp;P1;durP1;ratioP1;P2;durP2;ratioP2
8640;SDS011;4358;42.100;25.222;2022-12-07T00:00:45;11.23;;;4.70;;
8640;SDS011;4358;42.100;25.222;2022-12-07T00:03:12;10.83;;;4.87;;
8640;SDS011;4358;42.100;25.222;2022-12-07T00:05:40;8.73;;;4.93;;
8640;SDS011;4358;42.100;25.222;2022-12-07T00:08:07;11.73;;;5.63;;
8640;SDS011;4358;42.100;25.222;2022-12-07T00:10:34;10.23;;;4.97;;
8640;SDS011;4358;42.100;25.222;2022-12-07T00:13:01;12.23;;;5.57;;
8640;SDS011;4358;42.100;25.222;2022-12-07T00:15:28;10.77;;;4.63;;
8640;SDS011;4358;42.100;25.222;2022-12-07T00:17:54;8.70;;;4.83;;
8640;SDS011;4358;42.100;25.222;2022-12-07T00:20:21;11.00;;;5.60;;
8640;SDS011;4358;42.100;25.222;2022-12-07T00:22:49;9.23;;;4.40;;
8640;SDS011;4358;42.100;25.222;2022-12-07T00:25:16;9.87;;;4.40;;
8640;SDS011;4358;42.100;25.222;2022-12-07T00:27:43;8.23;;;4.43;;
8640;SDS011;4358;42.100;25.222;2022-12-07T00:30:10;10.57;;;4.63;;
8640;SDS011;4358;42.100;25.222;2022-12-07T00:32:37;11.43;;;4.00;;
8640;SDS011;4358;42.100;25.222;2022-12-07T00:35:05;9.03;;;4.57;;
8640;SDS011;4358;42.100;25.222;2022-12-07T00:37:32;7.60;;;3.87;;
8640;SDS011;4358;42.100;25.222;2022-12-07T00:40:00;9.17;;;3.97;;
8640;SDS011;4358;42.100;25.222;2022-12-07T00:42:27;9.53;;;4.47;;
8640;SDS011;4358;42.100;25.222;2022-12-07T00:44:53;10.67;;;5.60;;
8640;SDS011;4358;42.100;25.222;2022-12-07T00:47:20;9.27;;;4.90;;
8640;SDS011;4358;42.100;25.222;2022-12-07T00:49:47;11.43;;;5.83;;
8640;SDS011;4358;42.100;25.222;2022-12-07T00:52:14;13.50;;;7.00;;
8640;SDS011;4358;42.100;25.222;2022-12-07T00:54:41;9.83;;;5.83;;
8640;SDS011;4358;42.100;25.222;2022-12-07T00:57:09;16.57;;;6.93;;
8640;SDS011;4358;42.100;25.222;2022-12-07T00:59:36;9.40;;;5.97;;
8640;SDS011;4358;42.100;25.222;2022-12-07T01:02:03;10.77;;;5.80;;
8640;SDS011;4358;42.100;25.222;2022-12-07T01:04:29;11.47;;;6.20;;
8640;SDS011;4358;42.100;25.222;2022-12-07T01:06:59;11.27;;;5.80;;
8640;SDS011;4358;42.100;25.222;2022-12-07T01:09:26;10.67;;;5.97;;
8640;SDS011;4358;42.100;25.222;2022-12-07T01:11:53;12.63;;;6.43;;
8640;SDS011;4358;42.100;25.222;2022-12-07T01:14:21;9.47;;;5.23;;
8640;SDS011;4358;42.100;25.222;2022-12-07T01:16:48;11.50;;;5.90;;
8640;SDS011;4358;42.100;25.222;2022-12-07T01:19:15;10.10;;;5.93;;
8640;SDS011;4358;42.100;25.222;2022-12-07T01:21:41;11.67;;;6.13;;
8640;SDS011;4358;42.100;25.222;2022-12-07T01:24:09;12.47;;;6.37;;
8640;SDS011;4358;42.100;25.222;2022-12-07T01:26:36;10.87;;;5.80;;
8640;SDS011;4358;42.100;25.222;2022-12-07T01:29:04;10.10;;;4.90;;
8640;SDS011;4358;42.100;25.222;2022-12-07T01:31:32;12.83;;;6.13;;
8640;SDS011;4358;42.100;25.222;2022-12-07T01:33:59;9.87;;;4.40;;
8640;SDS011;4358;42.100;25.222;2022-12-07T01:36:27;9.47;;;4.57;;
8640;SDS011;4358;42.100;25.222;2022-12-07T01:38:55;9.27;;;4.80;;
8640;SDS011;4358;42.100;25.222;2022-12-07T01:41:24;9.00;;;4.80;;
8640;SDS011;4358;42.100;25.222;2022-12-07T01:46:44;8.57;;;5.10;;
8640;SDS011;4358;42.100;25.222;2022-12-07T01:49:14;11.13;;;5.33;;
8640;SDS011;4358;42.100;25.222;2022-12-07T01:51:45;9.10;;;5.07;;
8640;SDS011;4358;42.100;25.222;2022-12-07T01:54:14;11.03;;;5.40;;
8640;SDS011;4358;42.100;25.222;2022-12-07T01:56:43;11.33;;;5.30;;
8640;SDS011;4358;42.100;25.222;2022-12-07T01:59:15;11.20;;;5.57;;
8640;SDS011;4358;42.100;25.222;2022-12-07T02:01:45;10.57;;;5.13;;
8640;SDS011;4358;42.100;25.222;2022-12-07T02:04:13;12.20;;;6.30;;
8640;SDS011;4358;42.100;25.222;2022-12-07T02:06:40;12.83;;;5.90;;
8640;SDS011;4358;42.100;25.222;2022-12-07T02:09:09;11.57;;;5.97;;
8640;SDS011;4358;42.100;25.222;2022-12-07T02:11:36;10.80;;;5.47;;
8640;SDS011;4358;42.100;25.222;2022-12-07T02:14:03;11.40;;;5.60;;
8640;SDS011;4358;42.100;25.222;2022-12-07T02:16:32;9.20;;;5.23;;
8640;SDS011;4358;42.100;25.222;2022-12-07T02:19:20;11.17;;;5.57;;
8640;SDS011;4358;42.100;25.222;2022-12-07T02:22:15;12.47;;;5.87;;
8640;SDS011;4358;42.100;25.222;2022-12-07T02:24:55;13.77;;;6.30;;
8640;SDS011;4358;42.100;25.222;2022-12-07T02:27:38;11.47;;;5.90;;
8640;SDS011;4358;42.100;25.222;2022-12-07T02:30:13;12.40;;;6.57;;
8640;SDS011;4358;42.100;25.222;2022-12-07T02:32:47;12.57;;;6.30;;
8640;SDS011;4358;42.100;25.222;2022-12-07T02:35:23;11.00;;;5.57;;
8640;SDS011;4358;42.100;25.222;2022-12-07T02:37:59;12.20;;;6.43;;
8640;SDS011;4358;42.100;25.222;2022-12-07T02:40:35;12.57;;;6.67;;
8640;SDS011;4358;42.100;25.222;2022-12-07T02:43:06;16.10;;;6.87;;
8640;SDS011;4358;42.100;25.222;2022-12-07T02:45:40;11.53;;;5.73;;
8640;SDS011;4358;42.100;25.222;2022-12-07T02:48:08;10.60;;;6.00;;
8640;SDS011;4358;42.100;25.222;2022-12-07T02:50:38;12.43;;;6.90;;
8640;SDS011;4358;42.100;25.222;2022-12-07T02:53:05;12.20;;;6.63;;
8640;SDS011;4358;42.100;25.222;2022-12-07T02:55:33;12.93;;;6.60;;
8640;SDS011;4358;42.100;25.222;2022-12-07T03:01:00;13.90;;;6.97;;
8640;SDS011;4358;42.100;25.222;2022-12-07T03:03:35;12.93;;;6.53;;
8640;SDS011;4358;42.100;25.222;2022-12-07T03:06:07;13.47;;;5.97;;
8640;SDS011;4358;42.100;25.222;2022-12-07T03:08:46;13.83;;;6.63;;
8640;SDS011;4358;42.100;25.222;2022-12-07T03:11:21;14.87;;;6.17;;
8640;SDS011;4358;42.100;25.222;2022-12-07T03:13:54;13.17;;;5.63;;
8640;SDS011;4358;42.100;25.222;2022-12-07T03:16:28;17.20;;;5.97;;
8640;SDS011;4358;42.100;25.222;2022-12-07T03:18:59;10.17;;;6.37;;
8640;SDS011;4358;42.100;25.222;2022-12-07T03:21:31;12.47;;;7.07;;
8640;SDS011;4358;42.100;25.222;2022-12-07T03:24:03;15.63;;;7.23;;
8640;SDS011;4358;42.100;25.222;2022-12-07T03:26:34;13.17;;;6.23;;
8640;SDS011;4358;42.100;25.222;2022-12-07T03:29:05;12.47;;;6.13;;
8640;SDS011;4358;42.100;25.222;2022-12-07T03:31:40;9.00;;;5.30;;
8640;SDS011;4358;42.100;25.222;2022-12-07T03:34:11;9.33;;;4.70;;
8640;SDS011;4358;42.100;25.222;2022-12-07T03:36:43;9.07;;;5.93;;
8640;SDS011;4358;42.100;25.222;2022-12-07T03:39:16;9.43;;;5.60;;
8640;SDS011;4358;42.100;25.222;2022-12-07T03:41:49;14.43;;;6.80;;
8640;SDS011;4358;42.100;25.222;2022-12-07T03:44:17;8.87;;;5.60;;
8640;SDS011;4358;42.100;25.222;2022-12-07T03:46:49;8.87;;;5.50;;
8640;SDS011;4358;42.100;25.222;2022-12-07T03:49:25;12.57;;;6.50;;
8640;SDS011;4358;42.100;25.222;2022-12-07T03:51:55;8.63;;;5.53;;
8640;SDS011;4358;42.100;25.222;2022-12-07T03:54:29;8.93;;;5.50;;
8640;SDS011;4358;42.100;25.222;2022-12-07T03:56:59;11.60;;;5.83;;
8640;SDS011;4358;42.100;25.222;2022-12-07T03:59:28;14.23;;;5.70;;
8640;SDS011;4358;42.100;25.222;2022-12-07T04:02:06;15.87;;;6.43;;
8640;SDS011;4358;42.100;25.222;2022-12-07T04:04:34;11.57;;;5.77;;
8640;SDS011;4358;42.100;25.222;2022-12-07T04:07:01;13.60;;;6.13;;
8640;SDS011;4358;42.100;25.222;2022-12-07T04:09:28;11.37;;;5.90;;
8640;SDS011;4358;42.100;25.222;2022-12-07T04:11:55;10.30;;;6.30;;
8640;SDS011;4358;42.100;25.222;2022-12-07T04:14:21;10.70;;;6.23;;
8640;SDS011;4358;42.100;25.222;2022-12-07T04:16:49;11.20;;;6.13;;
8640;SDS011;4358;42.100;25.222;2022-12-07T04:19:19;12.13;;;5.90;;
8640;SDS011;4358;42.100;25.222;2022-12-07T04:21:47;13.07;;;6.03;;
8640;SDS011;4358;42.100;25.222;2022-12-07T04:24:14;12.37;;;6.53;;
8640;SDS011;4358;42.100;25.222;2022-12-07T04:26:42;8.50;;;5.57;;
8640;SDS011;4358;42.100;25.222;2022-12-07T04:29:10;13.47;;;6.53;;
8640;SDS011;4358;42.100;25.222;2022-12-07T04:31:37;8.63;;;5.57;;
8640;SDS011;4358;42.100;25.222;2022-12-07T04:34:05;10.77;;;5.50;;
8640;SDS011;4358;42.100;25.222;2022-12-07T04:36:33;13.53;;;7.73;;
8640;SDS011;4358;42.100;25.222;2022-12-07T04:39:00;19.40;;;10.37;;
8640;SDS011;4358;42.100;25.222;2022-12-07T04:41:27;20.50;;;8.90;;
8640;SDS011;4358;42.100;25.222;2022-12-07T04:43:54;18.67;;;10.03;;
8640;SDS011;4358;42.100;25.222;2022-12-07T04:46:21;19.60;;;9.80;;
8640;SDS011;4358;42.100;25.222;2022-12-07T04:48:49;17.50;;;8.27;;
8640;SDS011;4358;42.100;25.222;2022-12-07T04:51:18;10.73;;;5.93;;
8640;SDS011;4358;42.100;25.222;2022-12-07T04:53:47;9.10;;;5.27;;
8640;SDS011;4358;42.100;25.222;2022-12-07T04:56:15;12.20;;;4.97;;
8640;SDS011;4358;42.100;25.222;2022-12-07T04:58:43;9.30;;;4.93;;
8640;SDS011;4358;42.100;25.222;2022-12-07T05:01:11;11.97;;;5.60;;
8640;SDS011;4358;42.100;25.222;2022-12-07T05:03:38;10.77;;;5.03;;
8640;SDS011;4358;42.100;25.222;2022-12-07T05:06:06;9.50;;;5.23;;
8640;SDS011;4358;42.100;25.222;2022-12-07T05:08:33;9.73;;;5.70;;
8640;SDS011;4358;42.100;25.222;2022-12-07T05:11:02;9.77;;;5.10;;
8640;SDS011;4358;42.100;25.222;2022-12-07T05:13:30;13.43;;;5.80;;
8640;SDS011;4358;42.100;25.222;2022-12-07T05:15:57;6.97;;;4.57;;
8640;SDS011;4358;42.100;25.222;2022-12-07T05:18:25;9.93;;;5.60;;
8640;SDS011;4358;42.100;25.222;2022-12-07T05:20:52;9.07;;;6.10;;
8640;SDS011;4358;42.100;25.222;2022-12-07T05:23:18;15.37;;;8.00;;
8640;SDS011;4358;42.100;25.222;2022-12-07T05:25:46;13.30;;;7.67;;
8640;SDS011;4358;42.100;25.222;2022-12-07T05:28:14;12.90;;;6.80;;
8640;SDS011;4358;42.100;25.222;2022-12-07T05:30:41;16.07;;;8.23;;
8640;SDS011;4358;42.100;25.222;2022-12-07T05:33:08;9.97;;;5.87;;
8640;SDS011;4358;42.100;25.222;2022-12-07T05:35:34;14.20;;;7.47;;
8640;SDS011;4358;42.100;25.222;2022-12-07T05:38:03;10.40;;;7.20;;
8640;SDS011;4358;42.100;25.222;2022-12-07T05:40:30;15.50;;;6.73;;
8640;SDS011;4358;42.100;25.222;2022-12-07T05:42:56;10.33;;;6.23;;
8640;SDS011;4358;42.100;25.222;2022-12-07T05:45:25;13.23;;;6.40;;
8640;SDS011;4358;42.100;25.222;2022-12-07T05:47:51;12.43;;;5.37;;
8640;SDS011;4358;42.100;25.222;2022-12-07T05:50:18;23.63;;;7.33;;
8640;SDS011;4358;42.100;25.222;2022-12-07T05:52:45;12.73;;;6.57;;
8640;SDS011;4358;42.100;25.222;2022-12-07T05:55:13;18.57;;;7.23;;
8640;SDS011;4358;42.100;25.222;2022-12-07T05:57:40;10.63;;;6.17;;
8640;SDS011;4358;42.100;25.222;2022-12-07T06:00:29;10.30;;;5.53;;
8640;SDS011;4358;42.100;25.222;2022-12-07T06:02:55;11.87;;;6.37;;
8640;SDS011;4358;42.100;25.222;2022-12-07T06:05:22;9.27;;;5.63;;
8640;SDS011;4358;42.100;25.222;2022-12-07T06:07:49;11.30;;;5.60;;
8640;SDS011;4358;42.100;25.222;2022-12-07T06:10:16;9.23;;;5.47;;
8640;SDS011;4358;42.100;25.222;2022-12-07T06:12:43;9.77;;;5.90;;
8640;SDS011;4358;42.100;25.222;2022-12-07T06:15:11;12.00;;;6.20;;
8640;SDS011;4358;42.100;25.222;2022-12-07T06:17:40;12.40;;;5.73;;
8640;SDS011;4358;42.100;25.222;2022-12-07T06:20:07;10.63;;;5.57;;
8640;SDS011;4358;42.100;25.222;2022-12-07T06:22:34;16.80;;;7.63;;
8640;SDS011;4358;42.100;25.222;2022-12-07T06:25:01;17.10;;;7.97;;
8640;SDS011;4358;42.100;25.222;2022-12-07T06:27:29;11.17;;;6.40;;
8640;SDS011;4358;42.100;25.222;2022-12-07T06:29:57;16.13;;;6.90;;
8640;SDS011;4358;42.100;25.222;2022-12-07T06:32:24;9.83;;;5.20;;
8640;SDS011;4358;42.100;25.222;2022-12-07T06:34:53;7.67;;;4.87;;
8640;SDS011;4358;42.100;25.222;2022-12-07T06:37:20;10.03;;;5.87;;
8640;SDS011;4358;42.100;25.222;2022-12-07T06:39:46;10.77;;;6.10;;
8640;SDS011;4358;42.100;25.222;2022-12-07T06:42:13;14.27;;;6.10;;
8640;SDS011;4358;42.100;25.222;2022-12-07T06:44:40;11.43;;;6.63;;
8640;SDS011;4358;42.100;25.222;2022-12-07T06:47:07;12.87;;;7.10;;
8640;SDS011;4358;42.100;25.222;2022-12-07T06:49:34;10.20;;;6.40;;
8640;SDS011;4358;42.100;25.222;2022-12-07T06:52:02;10.70;;;6.10;;
8640;SDS011;4358;42.100;25.222;2022-12-07T06:54:30;14.97;;;6.37;;
8640;SDS011;4358;42.100;25.222;2022-12-07T06:56:58;13.00;;;7.07;;
8640;SDS011;4358;42.100;25.222;2022-12-07T06:59:24;9.17;;;6.03;;
8640;SDS011;4358;42.100;25.222;2022-12-07T07:01:51;12.37;;;6.23;;
8640;SDS011;4358;42.100;25.222;2022-12-07T07:04:18;14.10;;;6.10;;
8640;SDS011;4358;42.100;25.222;2022-12-07T07:06:45;10.03;;;5.07;;
8640;SDS011;4358;42.100;25.222;2022-12-07T07:09:13;9.07;;;5.27;;
8640;SDS011;4358;42.100;25.222;2022-12-07T07:11:40;9.63;;;5.40;;
8640;SDS011;4358;42.100;25.222;2022-12-07T07:14:07;9.73;;;4.90;;
8640;SDS011;4358;42.100;25.222;2022-12-07T07:16:34;8.60;;;4.23;;
8640;SDS011;4358;42.100;25.222;2022-12-07T07:19:01;5.93;;;4.23;;
8640;SDS011;4358;42.100;25.222;2022-12-07T07:21:27;6.77;;;3.93;;
8640;SDS011;4358;42.100;25.222;2022-12-07T07:23:54;8.93;;;3.20;;
8640;SDS011;4358;42.100;25.222;2022-12-07T07:26:23;7.10;;;3.73;;
8640;SDS011;4358;42.100;25.222;2022-12-07T07:28:50;5.40;;;3.53;;
8640;SDS011;4358;42.100;25.222;2022-12-07T07:31:17;3.57;;;2.50;;
8640;SDS011;4358;42.100;25.222;2022-12-07T07:33:44;13.17;;;4.60;;
8640;SDS011;4358;42.100;25.222;2022-12-07T07:36:11;8.93;;;2.90;;
8640;SDS011;4358;42.100;25.222;2022-12-07T07:38:38;4.90;;;3.47;;
8640;SDS011;4358;42.100;25.222;2022-12-07T07:41:05;5.27;;;3.23;;
8640;SDS011;4358;42.100;25.222;2022-12-07T07:43:33;5.50;;;2.80;;
8640;SDS011;4358;42.100;25.222;2022-12-07T07:46:00;4.90;;;3.10;;
8640;SDS011;4358;42.100;25.222;2022-12-07T07:48:27;5.83;;;3.00;;
8640;SDS011;4358;42.100;25.222;2022-12-07T07:50:54;5.70;;;3.23;;
8640;SDS011;4358;42.100;25.222;2022-12-07T07:53:20;5.20;;;3.00;;
8640;SDS011;4358;42.100;25.222;2022-12-07T07:55:51;5.40;;;3.60;;
8640;SDS011;4358;42.100;25.222;2022-12-07T07:58:18;4.63;;;3.30;;
8640;SDS011;4358;42.100;25.222;2022-12-07T08:00:48;5.57;;;3.53;;
8640;SDS011;4358;42.100;25.222;2022-12-07T08:03:15;6.90;;;4.00;;
8640;SDS011;4358;42.100;25.222;2022-12-07T08:05:42;6.60;;;4.30;;
8640;SDS011;4358;42.100;25.222;2022-12-07T08:08:09;8.27;;;4.13;;
8640;SDS011;4358;42.100;25.222;2022-12-07T08:10:35;6.77;;;4.13;;
8640;SDS011;4358;42.100;25.222;2022-12-07T08:13:02;7.93;;;4.43;;
8640;SDS011;4358;42.100;25.222;2022-12-07T08:15:39;9.70;;;4.87;;
8640;SDS011;4358;42.100;25.222;2022-12-07T08:18:09;9.90;;;5.30;;
8640;SDS011;4358;42.100;25.222;2022-12-07T08:20:37;10.73;;;5.10;;
8640;SDS011;4358;42.100;25.222;2022-12-07T08:23:05;13.67;;;5.57;;
8640;SDS011;4358;42.100;25.222;2022-12-07T08:25:33;9.87;;;5.57;;
8640;SDS011;4358;42.100;25.222;2022-12-07T08:28:00;9.37;;;5.17;;
8640;SDS011;4358;42.100;25.222;2022-12-07T08:30:27;8.70;;;5.10;;
8640;SDS011;4358;42.100;25.222;2022-12-07T08:32:55;9.13;;;5.20;;
8640;SDS011;4358;42.100;25.222;2022-12-07T08:35:23;13.07;;;6.73;;
8640;SDS011;4358;42.100;25.222;2022-12-07T08:37:51;13.27;;;6.63;;
8640;SDS011;4358;42.100;25.222;2022-12-07T08:40:18;15.70;;;6.40;;
8640;SDS011;4358;42.100;25.222;2022-12-07T08:42:48;12.63;;;6.10;;
8640;SDS011;4358;42.100;25.222;2022-12-07T08:45:16;13.53;;;6.40;;
8640;SDS011;4358;42.100;25.222;2022-12-07T08:47:44;12.63;;;7.30;;
8640;SDS011;4358;42.100;25.222;2022-12-07T08:50:16;12.97;;;6.40;;
8640;SDS011;4358;42.100;25.222;2022-12-07T08:52:45;12.90;;;7.30;;
8640;SDS011;4358;42.100;25.222;2022-12-07T08:55:15;10.83;;;6.60;;
8640;SDS011;4358;42.100;25.222;2022-12-07T08:57:42;14.73;;;6.97;;
8640;SDS011;4358;42.100;25.222;2022-12-07T09:00:10;15.77;;;7.23;;
8640;SDS011;4358;42.100;25.222;2022-12-07T09:02:38;14.23;;;8.30;;
8640;SDS011;4358;42.100;25.222;2022-12-07T09:05:05;14.90;;;7.23;;
8640;SDS011;4358;42.100;25.222;2022-12-07T09:07:32;14.63;;;6.77;;
8640;SDS011;4358;42.100;25.222;2022-12-07T09:10:02;15.03;;;7.53;;
8640;SDS011;4358;42.100;25.222;2022-12-07T09:12:29;12.57;;;6.90;;
8640;SDS011;4358;42.100;25.222;2022-12-07T09:14:56;13.60;;;7.20;;
8640;SDS011;4358;42.100;25.222;2022-12-07T09:17:23;10.73;;;6.23;;
8640;SDS011;4358;42.100;25.222;2022-12-07T09:19:50;10.53;;;6.43;;
8640;SDS011;4358;42.100;25.222;2022-12-07T09:22:17;18.70;;;8.50;;
8640;SDS011;4358;42.100;25.222;2022-12-07T09:24:44;10.77;;;6.20;;
8640;SDS011;4358;42.100;25.222;2022-12-07T09:27:12;11.53;;;7.17;;
8640;SDS011;4358;42.100;25.222;2022-12-07T09:29:39;11.93;;;6.70;;
8640;SDS011;4358;42.100;25.222;2022-12-07T09:32:06;14.03;;;6.63;;
8640;SDS011;4358;42.100;25.222;2022-12-07T09:34:33;13.03;;;6.30;;
8640;SDS011;4358;42.100;25.222;2022-12-07T09:37:00;11.50;;;6.03;;
8640;SDS011;4358;42.100;25.222;2022-12-07T09:39:28;10.53;;;6.27;;
8640;SDS011;4358;42.100;25.222;2022-12-07T09:41:56;10.17;;;6.00;;
8640;SDS011;4358;42.100;25.222;2022-12-07T09:44:26;13.67;;;7.07;;
8640;SDS011;4358;42.100;25.222;2022-12-07T09:46:54;11.10;;;6.73;;
8640;SDS011;4358;42.100;25.222;2022-12-07T09:49:23;12.90;;;6.60;;
8640;SDS011;4358;42.100;25.222;2022-12-07T09:51:59;10.53;;;6.13;;
8640;SDS011;4358;42.100;25.222;2022-12-07T09:54:28;10.07;;;6.20;;
8640;SDS011;4358;42.100;25.222;2022-12-07T09:56:56;12.30;;;6.90;;
8640;SDS011;4358;42.100;25.222;2022-12-07T09:59:26;18.53;;;7.73;;
8640;SDS011;4358;42.100;25.222;2022-12-07T10:01:53;13.43;;;7.43;;
8640;SDS011;4358;42.100;25.222;2022-12-07T10:04:20;13.53;;;7.57;;
8640;SDS011;4358;42.100;25.222;2022-12-07T10:06:50;13.57;;;7.00;;
8640;SDS011;4358;42.100;25.222;2022-12-07T10:09:19;13.83;;;9.13;;
8640;SDS011;4358;42.100;25.222;2022-12-07T10:12:03;12.87;;;8.33;;
8640;SDS011;4358;42.100;25.222;2022-12-07T10:14:34;13.77;;;8.37;;
8640;SDS011;4358;42.100;25.222;2022-12-07T10:17:02;20.70;;;8.80;;
8640;SDS011;4358;42.100;25.222;2022-12-07T10:20:18;15.23;;;8.57;;
8640;SDS011;4358;42.100;25.222;2022-12-07T10:22:54;14.80;;;7.00;;
8640;SDS011;4358;42.100;25.222;2022-12-07T10:25:24;12.77;;;7.23;;
8640;SDS011;4358;42.100;25.222;2022-12-07T10:27:57;14.87;;;7.97;;
8640;SDS011;4358;42.100;25.222;2022-12-07T10:30:45;11.57;;;6.93;;
8640;SDS011;4358;42.100;25.222;2022-12-07T10:38:47;12.27;;;7.40;;
8640;SDS011;4358;42.100;25.222;2022-12-07T10:41:15;9.43;;;6.47;;
8640;SDS011;4358;42.100;25.222;2022-12-07T10:43:52;12.50;;;7.97;;
8640;SDS011;4358;42.100;25.222;2022-12-07T10:46:32;12.03;;;7.60;;
8640;SDS011;4358;42.100;25.222;2022-12-07T10:52:38;10.97;;;6.97;;
8640;SDS011;4358;42.100;25.222;2022-12-07T10:55:25;11.97;;;6.90;;
8640;SDS011;4358;42.100;25.222;2022-12-07T10:58:07;10.20;;;6.70;;
8640;SDS011;4358;42.100;25.222;2022-12-07T11:00:50;11.40;;;7.47;;
8640;SDS011;4358;42.100;25.222;2022-12-07T11:03:35;11.37;;;6.90;;
8640;SDS011;4358;42.100;25.222;2022-12-07T11:06:12;8.60;;;5.67;;
8640;SDS011;4358;42.100;25.222;2022-12-07T11:08:54;13.70;;;7.90;;
8640;SDS011;4358;42.100;25.222;2022-12-07T11:11:31;13.63;;;8.23;;
8640;SDS011;4358;42.100;25.222;2022-12-07T11:14:03;11.03;;;7.07;;
8640;SDS011;4358;42.100;25.222;2022-12-07T11:16:48;11.57;;;7.60;;
8640;SDS011;4358;42.100;25.222;2022-12-07T11:19:27;12.07;;;7.77;;
8640;SDS011;4358;42.100;25.222;2022-12-07T11:22:17;10.43;;;7.13;;
8640;SDS011;4358;42.100;25.222;2022-12-07T11:24:50;11.13;;;7.03;;
8640;SDS011;4358;42.100;25.222;2022-12-07T11:27:28;9.90;;;6.77;;
8640;SDS011;4358;42.100;25.222;2022-12-07T11:30:07;8.67;;;6.43;;
8640;SDS011;4358;42.100;25.222;2022-12-07T11:32:44;11.00;;;6.37;;
8640;SDS011;4358;42.100;25.222;2022-12-07T11:35:21;13.23;;;7.17;;
8640;SDS011;4358;42.100;25.222;2022-12-07T11:37:55;10.67;;;6.63;;
8640;SDS011;4358;42.100;25.222;2022-12-07T11:40:26;12.37;;;6.67;;
8640;SDS011;4358;42.100;25.222;2022-12-07T11:43:01;13.07;;;7.43;;
8640;SDS011;4358;42.100;25.222;2022-12-07T11:45:32;9.13;;;6.30;;
8640;SDS011;4358;42.100;25.222;2022-12-07T11:48:01;14.27;;;8.07;;
8640;SDS011;4358;42.100;25.222;2022-12-07T11:50:34;11.30;;;7.90;;
8640;SDS011;4358;42.100;25.222;2022-12-07T11:53:05;13.40;;;7.23;;
8640;SDS011;4358;42.100;25.222;2022-12-07T11:55:42;11.70;;;7.27;;
8640;SDS011;4358;42.100;25.222;2022-12-07T11:58:18;10.13;;;6.63;;
8640;SDS011;4358;42.100;25.222;2022-12-07T12:00:51;13.97;;;9.23;;
8640;SDS011;4358;42.100;25.222;2022-12-07T12:03:28;12.57;;;7.77;;
8640;SDS011;4358;42.100;25.222;2022-12-07T12:06:01;13.27;;;8.93;;
8640;SDS011;4358;42.100;25.222;2022-12-07T12:08:29;13.87;;;9.37;;
8640;SDS011;4358;42.100;25.222;2022-12-07T12:11:03;12.43;;;8.60;;
8640;SDS011;4358;42.100;25.222;2022-12-07T12:13:55;10.30;;;7.90;;
8640;SDS011;4358;42.100;25.222;2022-12-07T12:16:47;12.13;;;7.47;;
8640;SDS011;4358;42.100;25.222;2022-12-07T12:19:44;13.37;;;6.63;;
8640;SDS011;4358;42.100;25.222;2022-12-07T12:22:32;10.03;;;7.23;;
8640;SDS011;4358;42.100;25.222;2022-12-07T12:25:04;17.93;;;8.80;;
8640;SDS011;4358;42.100;25.222;2022-12-07T12:27:33;15.00;;;8.73;;
8640;SDS011;4358;42.100;25.222;2022-12-07T12:30:02;15.80;;;7.93;;
8640;SDS011;4358;42.100;25.222;2022-12-07T12:32:34;19.70;;;8.07;;
8640;SDS011;4358;42.100;25.222;2022-12-07T12:35:20;15.67;;;7.47;;
8640;SDS011;4358;42.100;25.222;2022-12-07T12:37:55;15.10;;;7.90;;
8640;SDS011;4358;42.100;25.222;2022-12-07T12:40:54;12.97;;;7.63;;
8640;SDS011;4358;42.100;25.222;2022-12-07T12:43:40;12.07;;;7.00;;
8640;SDS011;4358;42.100;25.222;2022-12-07T12:55:20;11.00;;;7.07;;
8640;SDS011;4358;42.100;25.222;2022-12-07T13:10:40;12.87;;;7.77;;
8640;SDS011;4358;42.100;25.222;2022-12-07T13:18:56;12.80;;;7.80;;
8640;SDS011;4358;42.100;25.222;2022-12-07T13:21:42;12.97;;;7.57;;
8640;SDS011;4358;42.100;25.222;2022-12-07T13:24:10;11.77;;;6.87;;
8640;SDS011;4358;42.100;25.222;2022-12-07T13:26:41;13.63;;;7.87;;
8640;SDS011;4358;42.100;25.222;2022-12-07T13:29:11;11.90;;;7.10;;
8640;SDS011;4358;42.100;25.222;2022-12-07T13:31:40;11.57;;;7.53;;
8640;SDS011;4358;42.100;25.222;2022-12-07T13:34:28;17.63;;;7.20;;
8640;SDS011;4358;42.100;25.222;2022-12-07T13:36:56;14.50;;;7.83;;
8640;SDS011;4358;42.100;25.222;2022-12-07T13:39:24;11.63;;;6.80;;
8640;SDS011;4358;42.100;25.222;2022-12-07T13:41:54;11.50;;;7.53;;
8640;SDS011;4358;42.100;25.222;2022-12-07T13:44:23;12.90;;;8.13;;
8640;SDS011;4358;42.100;25.222;2022-12-07T13:46:53;12.10;;;6.87;;
8640;SDS011;4358;42.100;25.222;2022-12-07T13:49:28;10.10;;;6.60;;
8640;SDS011;4358;42.100;25.222;2022-12-07T13:52:07;12.27;;;6.97;;
8640;SDS011;4358;42.100;25.222;2022-12-07T13:54:43;12.53;;;6.83;;
8640;SDS011;4358;42.100;25.222;2022-12-07T13:57:13;12.73;;;7.23;;
8640;SDS011;4358;42.100;25.222;2022-12-07T13:59:40;9.57;;;6.60;;
8640;SDS011;4358;42.100;25.222;2022-12-07T14:02:16;11.87;;;6.93;;
8640;SDS011;4358;42.100;25.222;2022-12-07T14:04:45;11.37;;;7.10;;
8640;SDS011;4358;42.100;25.222;2022-12-07T14:07:23;12.63;;;7.40;;
8640;SDS011;4358;42.100;25.222;2022-12-07T14:09:54;13.83;;;7.30;;
8640;SDS011;4358;42.100;25.222;2022-12-07T14:12:24;12.00;;;7.30;;
8640;SDS011;4358;42.100;25.222;2022-12-07T14:14:53;12.27;;;7.93;;
8640;SDS011;4358;42.100;25.222;2022-12-07T14:17:22;14.87;;;8.93;;
8640;SDS011;4358;42.100;25.222;2022-12-07T14:19:51;14.23;;;9.13;;
8640;SDS011;4358;42.100;25.222;2022-12-07T14:22:24;12.50;;;8.73;;
8640;SDS011;4358;42.100;25.222;2022-12-07T14:25:00;18.53;;;10.50;;
8640;SDS011;4358;42.100;25.222;2022-12-07T14:27:48;26.40;;;13.77;;
8640;SDS011;4358;42.100;25.222;2022-12-07T14:30:18;13.67;;;8.40;;
8640;SDS011;4358;42.100;25.222;2022-12-07T14:32:46;9.30;;;7.40;;
8640;SDS011;4358;42.100;25.222;2022-12-07T14:35:17;12.17;;;7.80;;
8640;SDS011;4358;42.100;25.222;2022-12-07T14:37:45;15.27;;;9.33;;
8640;SDS011;4358;42.100;25.222;2022-12-07T14:40:14;18.30;;;10.50;;
8640;SDS011;4358;42.100;25.222;2022-12-07T14:42:42;33.17;;;20.53;;
8640;SDS011;4358;42.100;25.222;2022-12-07T14:45:14;14.00;;;9.40;;
8640;SDS011;4358;42.100;25.222;2022-12-07T14:47:43;12.57;;;8.30;;
8640;SDS011;4358;42.100;25.222;2022-12-07T14:50:11;13.00;;;7.83;;
8640;SDS011;4358;42.100;25.222;2022-12-07T14:52:39;14.23;;;7.93;;
8640;SDS011;4358;42.100;25.222;2022-12-07T14:55:11;16.87;;;8.13;;
8640;SDS011;4358;42.100;25.222;2022-12-07T14:57:40;15.33;;;10.27;;
8640;SDS011;4358;42.100;25.222;2022-12-07T15:00:08;13.73;;;9.53;;
8640;SDS011;4358;42.100;25.222;2022-12-07T15:02:40;15.13;;;9.97;;
8640;SDS011;4358;42.100;25.222;2022-12-07T15:05:07;17.53;;;9.97;;
8640;SDS011;4358;42.100;25.222;2022-12-07T15:07:35;15.77;;;10.80;;
8640;SDS011;4358;42.100;25.222;2022-12-07T15:10:02;16.40;;;10.47;;
8640;SDS011;4358;42.100;25.222;2022-12-07T15:12:29;21.27;;;9.70;;
8640;SDS011;4358;42.100;25.222;2022-12-07T15:14:56;13.00;;;8.37;;
8640;SDS011;4358;42.100;25.222;2022-12-07T15:17:23;16.30;;;9.70;;
8640;SDS011;4358;42.100;25.222;2022-12-07T15:19:51;22.53;;;12.93;;
8640;SDS011;4358;42.100;25.222;2022-12-07T15:22:18;31.03;;;17.87;;
8640;SDS011;4358;42.100;25.222;2022-12-07T15:24:44;33.07;;;17.80;;
8640;SDS011;4358;42.100;25.222;2022-12-07T15:27:11;18.37;;;12.00;;
8640;SDS011;4358;42.100;25.222;2022-12-07T15:29:38;17.70;;;10.97;;
8640;SDS011;4358;42.100;25.222;2022-12-07T15:32:05;18.93;;;11.87;;
8640;SDS011;4358;42.100;25.222;2022-12-07T15:34:32;25.80;;;13.63;;
8640;SDS011;4358;42.100;25.222;2022-12-07T15:37:00;21.60;;;11.80;;
8640;SDS011;4358;42.100;25.222;2022-12-07T15:39:27;18.70;;;12.33;;
8640;SDS011;4358;42.100;25.222;2022-12-07T15:41:54;28.27;;;11.97;;
8640;SDS011;4358;42.100;25.222;2022-12-07T15:44:21;18.80;;;12.13;;
8640;SDS011;4358;42.100;25.222;2022-12-07T15:47:05;17.83;;;11.33;;
8640;SDS011;4358;42.100;25.222;2022-12-07T15:49:32;27.17;;;13.90;;
8640;SDS011;4358;42.100;25.222;2022-12-07T15:52:00;31.13;;;15.67;;